Air Navigation Services of Czech Republic
Airport: LKPD Updated:  18.07.2018 18:01:07  UTC
 METAR LKPD 18.07. 18:00 ...
METAR LKPD 181800Z 00000KT CAVOK 21/16 Q1013 NOSIG RMK BLU BLU=
 TAF LKPD 18.07. 17:00 ...
TAF LKPD 181700Z 1818/1918 32008KT CAVOK      PROB40 TEMPO 1818/1908 RA SCT040=